Time;durP1;ratioP1;P1;durP2;ratioP2;P2;SDS_P1;SDS_P2;PMS_P1;PMS_P2;Temp;Humidity;BMP_temperature;BMP_pressure;BME280_temperature;BME280_humidity;BME280_pressure;Samples;Min_cycle;Max_cycle;Signal;HPM_P1;HPM_P2
2022/06/17 00:00:52;;;;;;;5.90;2.50;;;;;15.00;97602.60;;;;110721;1253;41162;-65
2022/06/17 00:03:25;;;;;;;7.00;2.50;;;;;15.00;97607.60;;;;110526;1254;41733;-65
2022/06/17 00:05:56;;;;;;;6.00;2.40;;;;;14.96;97602.40;;;;110622;1253;41146;-64
2022/06/17 00:08:30;;;;;;;5.40;2.20;;;;;14.90;97598.60;;;;110698;1251;41162;-66
2022/06/17 00:10:59;;;;;;;5.80;2.60;;;;;14.90;97597.20;;;;110717;1251;41157;-65
2022/06/17 00:13:29;;;;;;;6.30;2.50;;;;;14.90;97594.80;;;;110690;1251;41618;-66
2022/06/17 00:15:59;;;;;;;7.40;3.00;;;;;14.82;97592.20;;;;110535;1254;41250;-67
2022/06/17 00:18:30;;;;;;;7.50;2.90;;;;;14.80;97591.20;;;;110553;1254;41144;-66
2022/06/17 00:21:03;;;;;;;6.70;2.50;;;;;14.80;97591.80;;;;110587;1254;41210;-67
2022/06/17 00:23:32;;;;;;;6.10;2.30;;;;;14.70;97587.60;;;;110504;1254;41172;-65
2022/06/17 00:26:03;;;;;;;4.80;2.30;;;;;14.60;97589.60;;;;110585;1253;41263;-66
2022/06/17 00:28:33;;;;;;;4.50;2.10;;;;;14.56;97587.60;;;;110552;1251;41258;-66
2022/06/17 00:31:03;;;;;;;5.70;2.20;;;;;14.50;97588.60;;;;110645;1251;41186;-64
2022/06/17 00:33:33;;;;;;;10.20;3.20;;;;;14.40;97597.20;;;;110546;1251;41640;-66
2022/06/17 00:36:04;;;;;;;7.10;2.90;;;;;14.30;97596.80;;;;110666;1251;41160;-65
2022/06/17 00:38:36;;;;;;;8.10;3.00;;;;;14.10;97592.80;;;;110620;1254;41168;-66
2022/06/17 00:41:23;;;;;;;10.70;3.10;;;;;14.10;97591.40;;;;110716;1253;41888;-64
2022/06/17 00:43:53;;;;;;;7.60;2.90;;;;;14.10;97592.20;;;;110664;1251;41835;-66
2022/06/17 00:46:35;;;;;;;5.50;2.30;;;;;14.00;97594.00;;;;110577;1253;41147;-66
2022/06/17 00:49:47;;;;;;;6.10;2.40;;;;;14.00;97592.80;;;;110551;1254;41174;-67
2022/06/17 00:52:30;;;;;;;6.30;2.30;;;;;13.92;97593.40;;;;110069;1259;41615;-66
2022/06/17 00:55:04;;;;;;;5.30;2.20;;;;;13.90;97588.20;;;;110044;1259;41169;-65
2022/06/17 00:57:38;;;;;;;7.90;2.90;;;;;13.90;97587.40;;;;109919;1260;41672;-66
2022/06/17 01:00:08;;;;;;;5.50;2.30;;;;;13.84;97586.80;;;;110019;1259;41161;-66
2022/06/17 01:02:45;;;;;;;6.70;2.20;;;;;13.80;97586.40;;;;110118;1260;41265;-67
2022/06/17 01:05:19;;;;;;;4.20;1.90;;;;;13.80;97584.20;;;;110125;1260;41171;-66
2022/06/17 01:08:12;;;;;;;6.90;2.30;;;;;13.80;97580.20;;;;110104;1261;41158;-68
2022/06/17 01:10:47;;;;;;;5.80;2.50;;;;;13.80;97581.60;;;;110094;1260;41185;-66
2022/06/17 01:13:17;;;;;;;6.80;2.60;;;;;13.80;97582.40;;;;109869;1260;41279;-66
2022/06/17 01:15:47;;;;;;;11.10;2.60;;;;;13.76;97578.20;;;;109830;1261;41357;-67
2022/06/17 01:18:17;;;;;;;6.10;2.80;;;;;13.72;97577.00;;;;110058;1260;41914;-65
2022/06/17 01:20:50;;;;;;;6.00;2.30;;;;;13.70;97574.80;;;;109787;1260;41178;-65
2022/06/17 01:23:22;;;;;;;5.30;2.40;;;;;13.80;97573.00;;;;109751;1263;41144;-67
2022/06/17 01:25:53;;;;;;;6.30;2.60;;;;;13.80;97570.40;;;;109999;1260;41917;-66
2022/06/17 01:28:23;;;;;;;6.80;2.60;;;;;13.80;97564.60;;;;109962;1257;41454;-67
2022/06/17 01:30:58;;;;;;;7.10;2.70;;;;;13.90;97560.00;;;;110626;1254;41148;-65
2022/06/17 01:33:29;;;;;;;7.90;2.60;;;;;13.90;97559.00;;;;110438;1254;41690;-66
2022/06/17 01:36:04;;;;;;;;;;;;;13.90;97557.20;;;;110563;1254;41822;-66
2022/06/17 01:38:35;;;;;;;6.60;2.70;;;;;13.90;97555.00;;;;110618;1253;41160;-65
2022/06/17 01:41:07;;;;;;;6.70;2.70;;;;;13.90;97555.60;;;;110413;1254;41169;-65
2022/06/17 01:43:43;;;;;;;7.80;3.10;;;;;13.90;97555.80;;;;110500;1254;41611;-66
2022/06/17 01:46:17;;;;;;;8.80;3.00;;;;;13.96;97557.40;;;;110556;1253;42372;-66
2022/06/17 01:48:52;;;;;;;8.50;2.80;;;;;14.00;97551.40;;;;110527;1253;41155;-66
2022/06/17 01:51:23;;;;;;;7.70;2.50;;;;;13.98;97551.20;;;;110442;1254;41155;-66
2022/06/17 01:53:58;;;;;;;5.50;2.30;;;;;13.98;97553.20;;;;110665;1251;41303;-64
2022/06/17 01:56:30;;;;;;;11.40;3.30;;;;;14.00;97554.80;;;;110558;1251;41143;-66
2022/06/17 01:59:25;;;;;;;6.50;2.80;;;;;14.00;97554.20;;;;110333;1254;41137;-65
2022/06/17 02:01:59;;;;;;;7.40;2.80;;;;;14.00;97553.20;;;;110480;1254;41214;-66
2022/06/17 02:04:33;;;;;;;9.80;3.20;;;;;13.94;97552.00;;;;110481;1254;41138;-65
2022/06/17 02:07:13;;;;;;;8.30;3.00;;;;;13.80;97547.20;;;;110583;1251;41304;-66
2022/06/17 02:09:45;;;;;;;5.80;2.30;;;;;13.80;97545.00;;;;110487;1254;41173;-65
2022/06/17 02:12:17;;;;;;;7.40;2.80;;;;;13.72;97542.60;;;;110539;1254;41263;-64
2022/06/17 02:14:53;;;;;;;6.20;2.40;;;;;13.70;97535.40;;;;110496;1254;41209;-66
2022/06/17 02:17:46;;;;;;;10.50;2.70;;;;;13.72;97533.60;;;;110583;1253;41275;-65
2022/06/17 02:20:29;;;;;;;4.70;2.20;;;;;13.72;97532.80;;;;110568;1251;41276;-65
2022/06/17 02:23:03;;;;;;;5.60;2.50;;;;;13.74;97530.80;;;;110608;1251;41258;-66
2022/06/17 02:25:49;;;;;;;7.40;2.80;;;;;13.78;97531.40;;;;110564;1253;41141;-65
2022/06/17 02:28:20;;;;;;;7.30;2.60;;;;;13.70;97531.60;;;;110608;1254;41789;-64
2022/06/17 02:30:51;;;;;;;5.80;2.50;;;;;13.70;97531.00;;;;110674;1254;41624;-65
2022/06/17 02:33:23;;;;;;;5.30;2.40;;;;;13.70;97529.60;;;;110684;1251;41510;-65
2022/06/17 02:36:02;;;;;;;5.40;2.30;;;;;13.70;97534.00;;;;110522;1253;42407;-65
2022/06/17 02:38:38;;;;;;;5.90;2.50;;;;;13.76;97525.40;;;;110563;1254;41286;-64
2022/06/17 02:41:13;;;;;;;4.90;2.30;;;;;13.80;97519.40;;;;110632;1251;42379;-66
2022/06/17 02:43:47;;;;;;;6.10;2.30;;;;;13.80;97520.60;;;;110455;1254;41264;-66
2022/06/17 02:46:28;;;;;;;5.20;2.30;;;;;13.82;97524.20;;;;110440;1254;41904;-64
2022/06/17 02:49:01;;;;;;;5.50;2.30;;;;;13.90;97523.60;;;;110580;1253;41255;-66
2022/06/17 02:51:36;;;;;;;5.70;2.60;;;;;13.90;97519.00;;;;110574;1251;41636;-66
2022/06/17 02:54:08;;;;;;;7.80;3.40;;;;;13.90;97522.80;;;;110635;1253;41747;-65
2022/06/17 02:56:38;;;;;;;6.70;3.10;;;;;14.02;97525.00;;;;110438;1251;41591;-66
2022/06/17 02:59:18;;;;;;;8.40;3.30;;;;;14.02;97524.40;;;;110543;1251;41152;-65
2022/06/17 03:01:54;;;;;;;6.40;2.70;;;;;14.00;97528.40;;;;110463;1253;41311;-66
2022/06/17 03:04:44;;;;;;;7.60;2.70;;;;;13.98;97526.60;;;;110584;1251;41197;-66
2022/06/17 03:07:17;;;;;;;6.30;2.80;;;;;14.00;97525.60;;;;110540;1254;42971;-67
2022/06/17 03:09:48;;;;;;;6.00;2.50;;;;;14.00;97525.80;;;;110500;1253;41157;-65
2022/06/17 03:12:23;;;;;;;7.20;3.00;;;;;14.08;97525.80;;;;110614;1254;41242;-66
2022/06/17 03:15:09;;;;;;;7.60;3.00;;;;;14.10;97526.60;;;;110539;1253;41269;-65
2022/06/17 03:17:43;;;;;;;8.50;3.30;;;;;14.10;97526.60;;;;110322;1255;41269;-65
2022/06/17 03:20:24;;;;;;;8.00;3.10;;;;;14.10;97521.60;;;;110483;1254;41277;-65
2022/06/17 03:23:03;;;;;;;8.50;3.00;;;;;14.10;97527.80;;;;110758;1252;41812;-66
2022/06/17 03:26:06;;;;;;;5.70;2.60;;;;;14.10;97532.00;;;;110406;1254;42622;-64
2022/06/17 03:28:43;;;;;;;10.10;2.80;;;;;14.10;97536.40;;;;110564;1254;41610;-66
2022/06/17 03:31:37;;;;;;;6.30;2.40;;;;;14.20;97534.20;;;;110562;1254;41148;-66
2022/06/17 03:34:23;;;;;;;7.90;3.10;;;;;14.30;97529.60;;;;110567;1253;42192;-66
2022/06/17 03:37:38;;;;;;;7.20;2.70;;;;;14.30;97528.00;;;;110418;1254;41604;-65
2022/06/17 03:40:28;;;;;;;8.70;2.30;;;;;14.40;97525.60;;;;110530;1253;41191;-65
2022/06/17 03:43:15;;;;;;;6.20;2.50;;;;;14.50;97522.60;;;;110510;1254;41916;-66
2022/06/17 03:45:55;;;;;;;5.60;2.40;;;;;14.62;97522.60;;;;110564;1253;41945;-65
2022/06/17 03:48:32;;;;;;;6.80;2.80;;;;;14.80;97519.40;;;;110380;1254;41920;-64
2022/06/17 03:51:01;;;;;;;7.70;3.20;;;;;14.70;97518.00;;;;110564;1254;41951;-64
2022/06/17 03:53:37;;;;;;;6.00;2.50;;;;;14.76;97515.20;;;;110490;1254;41660;-65
2022/06/17 03:56:28;;;;;;;6.70;2.70;;;;;14.90;97511.20;;;;110594;1254;43023;-65
2022/06/17 03:59:02;;;;;;;6.50;2.40;;;;;15.10;97514.20;;;;110501;1254;41382;-64
2022/06/17 04:01:39;;;;;;;5.50;2.50;;;;;15.20;97513.60;;;;110518;1253;41286;-65
2022/06/17 04:04:17;;;;;;;8.30;2.50;;;;;15.40;97519.40;;;;110493;1253;41713;-65
2022/06/17 04:06:48;;;;;;;5.30;2.30;;;;;15.50;97521.60;;;;110534;1253;41270;-66
2022/06/17 04:09:31;;;;;;;6.90;2.30;;;;;15.60;97522.60;;;;110589;1251;41275;-66
2022/06/17 04:12:04;;;;;;;5.40;2.10;;;;;15.70;97523.80;;;;110643;1251;41296;-65
2022/06/17 04:15:04;;;;;;;5.90;2.20;;;;;15.80;97522.40;;;;110612;1253;41617;-66
2022/06/17 04:17:48;;;;;;;5.80;2.40;;;;;15.80;97520.40;;;;110408;1254;41254;-66
2022/06/17 04:20:36;;;;;;;5.70;2.60;;;;;15.86;97518.40;;;;110607;1251;41835;-65
2022/06/17 04:23:11;;;;;;;13.70;3.80;;;;;15.80;97518.00;;;;110531;1253;41153;-65
2022/06/17 04:26:23;;;;;;;8.50;3.40;;;;;15.60;97508.20;;;;110587;1253;41266;-65
2022/06/17 04:29:05;;;;;;;7.70;3.10;;;;;15.60;97505.20;;;;110559;1253;41150;-66
2022/06/17 04:31:36;;;;;;;6.80;2.80;;;;;15.70;97511.20;;;;110567;1251;41931;-64
2022/06/17 04:34:14;;;;;;;8.30;3.20;;;;;15.78;97507.40;;;;110605;1251;41633;-65
2022/06/17 04:36:55;;;;;;;10.10;3.80;;;;;15.82;97504.40;;;;110471;1253;41267;-65
2022/06/17 04:39:43;;;;;;;7.30;2.70;;;;;15.90;97512.00;;;;110573;1253;41274;-66
2022/06/17 04:42:36;;;;;;;6.40;2.70;;;;;16.10;97515.20;;;;110481;1253;42022;-66
2022/06/17 04:45:06;;;;;;;6.20;2.50;;;;;16.40;97508.40;;;;110690;1251;41630;-67
2022/06/17 04:47:39;;;;;;;5.70;2.40;;;;;16.70;97515.60;;;;110644;1251;41835;-66
2022/06/17 04:50:21;;;;;;;5.70;2.60;;;;;17.00;97514.60;;;;110568;1251;42129;-66
2022/06/17 04:52:54;;;;;;;4.10;2.10;;;;;17.20;97518.40;;;;110459;1253;41165;-67
2022/06/17 04:55:40;;;;;;;5.40;2.30;;;;;17.40;97510.80;;;;110472;1251;41244;-64
2022/06/17 04:58:30;;;;;;;9.50;3.30;;;;;17.72;97508.40;;;;110563;1251;41172;-65
2022/06/17 05:01:03;;;;;;;9.70;3.30;;;;;18.12;97506.80;;;;110538;1251;41456;-66
2022/06/17 05:03:42;;;;;;;7.10;2.80;;;;;18.52;97509.80;;;;110630;1251;43072;-65
2022/06/17 05:06:20;;;;;;;5.70;2.50;;;;;18.92;97500.00;;;;110604;1251;41264;-66
2022/06/17 05:08:53;;;;;;;7.00;2.50;;;;;19.64;97490.80;;;;110558;1251;41160;-66
2022/06/17 05:11:29;;;;;;;7.20;2.70;;;;;20.62;97481.80;;;;110321;1254;41162;-66
2022/06/17 05:14:14;;;;;;;14.10;2.70;;;;;22.12;97472.20;;;;110555;1251;41210;-65
2022/06/17 05:16:43;;;;;;;6.60;2.40;;;;;22.80;97491.20;;;;110467;1253;41885;-65
2022/06/17 05:19:14;;;;;;;;;;;;;22.52;97489.20;;;;110509;1254;41154;-65
2022/06/17 05:21:44;;;;;;;7.20;2.30;;;;;21.82;97490.60;;;;110668;1251;41134;-66
2022/06/17 05:24:19;;;;;;;5.90;2.40;;;;;21.40;97492.80;;;;110436;1253;41287;-65
2022/06/17 05:26:51;;;;;;;7.40;2.10;;;;;20.94;97492.00;;;;110679;1251;41261;-68
2022/06/17 05:29:21;;;;;;;8.30;2.20;;;;;20.72;97492.20;;;;110525;1253;41262;-66
2022/06/17 05:31:55;;;;;;;7.00;2.30;;;;;20.50;97494.40;;;;110543;1251;42426;-65
2022/06/17 05:34:30;;;;;;;4.70;1.90;;;;;20.50;97502.00;;;;110361;1253;41147;-65
2022/06/17 05:37:02;;;;;;;3.40;1.80;;;;;20.58;97505.80;;;;110668;1251;41216;-64
2022/06/17 05:39:35;;;;;;;3.60;1.80;;;;;20.70;97518.00;;;;110466;1251;41769;-65
2022/06/17 05:42:05;;;;;;;7.90;2.50;;;;;20.80;97538.80;;;;110483;1254;41310;-66
2022/06/17 05:44:34;;;;;;;7.60;3.00;;;;;20.70;97554.60;;;;110708;1253;41206;-65
2022/06/17 05:47:15;;;;;;;9.10;3.10;;;;;20.34;97556.80;;;;110488;1253;41608;-66
2022/06/17 05:50:21;;;;;;;9.30;3.30;;;;;20.10;97548.60;;;;110210;1257;41593;-65
2022/06/17 05:53:13;;;;;;;8.70;3.80;;;;;20.00;97562.40;;;;110429;1252;42247;-65
2022/06/17 05:55:50;;;;;;;6.80;2.80;;;;;19.72;97553.40;;;;110527;1253;41272;-65
2022/06/17 05:58:20;;;;;;;8.30;3.10;;;;;19.90;97546.40;;;;110515;1253;41144;-66
2022/06/17 06:00:51;;;;;;;8.80;3.50;;;;;20.00;97577.80;;;;110452;1253;42375;-67
2022/06/17 06:03:27;;;;;;;8.50;3.70;;;;;20.00;97571.20;;;;110576;1253;43029;-65
2022/06/17 06:06:02;;;;;;;12.10;3.40;;;;;20.10;97539.20;;;;110470;1253;41149;-65
2022/06/17 06:08:32;;;;;;;9.00;3.60;;;;;20.10;97562.80;;;;110557;1254;42158;-67
2022/06/17 06:11:05;;;;;;;9.10;3.40;;;;;20.10;97575.00;;;;110547;1253;41266;-67
2022/06/17 06:13:38;;;;;;;7.30;3.10;;;;;20.20;97558.80;;;;110568;1251;41270;-66
2022/06/17 06:16:08;;;;;;;5.60;2.60;;;;;20.20;97548.40;;;;110567;1253;41345;-66
2022/06/17 06:18:47;;;;;;;6.20;2.40;;;;;20.38;97556.20;;;;110619;1253;42677;-66
2022/06/17 06:21:19;;;;;;;7.20;2.60;;;;;20.50;97551.40;;;;110566;1251;41269;-66
2022/06/17 06:23:48;;;;;;;4.80;2.00;;;;;20.60;97550.80;;;;110717;1251;41134;-65
2022/06/17 06:26:24;;;;;;;5.70;2.40;;;;;20.70;97558.60;;;;110562;1253;41392;-65
2022/06/17 06:29:13;;;;;;;5.30;2.40;;;;;20.70;97560.20;;;;110511;1254;41221;-65
2022/06/17 06:31:42;;;;;;;5.90;2.50;;;;;20.70;97565.60;;;;110530;1253;41258;-66
2022/06/17 06:34:22;;;;;;;5.60;2.20;;;;;20.50;97572.20;;;;110490;1253;42133;-66
2022/06/17 06:36:52;;;;;;;4.80;2.00;;;;;20.42;97567.00;;;;110554;1251;41310;-65
2022/06/17 06:39:22;;;;;;;6.90;2.30;;;;;20.40;97571.40;;;;110541;1252;41692;-66
2022/06/17 06:41:54;;;;;;;10.10;2.50;;;;;20.30;97573.80;;;;110494;1253;41160;-67
2022/06/17 06:44:24;;;;;;;6.10;2.50;;;;;20.16;97578.00;;;;110594;1253;41539;-66
2022/06/17 06:47:06;;;;;;;6.60;2.40;;;;;20.00;97591.20;;;;110546;1253;42575;-65
2022/06/17 06:49:53;;;;;;;7.00;2.50;;;;;19.84;97596.40;;;;110729;1252;41270;-66
2022/06/17 06:52:25;;;;;;;6.90;2.50;;;;;19.70;97592.20;;;;110471;1254;41271;-66
2022/06/17 06:54:54;;;;;;;5.50;2.30;;;;;19.60;97590.20;;;;110554;1253;42329;-66
2022/06/17 06:57:24;;;;;;;7.10;2.80;;;;;19.50;97597.20;;;;110539;1254;41362;-65
2022/06/17 07:00:06;;;;;;;6.20;2.20;;;;;19.50;97602.20;;;;110609;1253;41603;-66
2022/06/17 07:02:36;;;;;;;8.20;2.70;;;;;19.42;97605.20;;;;110711;1251;41630;-65
2022/06/17 07:05:06;;;;;;;8.30;2.70;;;;;19.42;97605.40;;;;110566;1251;41385;-63
2022/06/17 07:07:39;;;;;;;6.00;2.60;;;;;19.40;97613.80;;;;110554;1253;41511;-67
2022/06/17 07:10:11;;;;;;;10.50;2.90;;;;;19.30;97615.60;;;;110590;1253;41280;-65
2022/06/17 07:12:40;;;;;;;5.90;2.40;;;;;19.30;97623.40;;;;110524;1253;41255;-65
2022/06/17 07:15:10;;;;;;;6.50;2.70;;;;;19.30;97619.40;;;;110604;1251;41341;-66
2022/06/17 07:17:40;;;;;;;6.10;2.60;;;;;19.30;97615.00;;;;110507;1254;41162;-66
2022/06/17 07:20:10;;;;;;;10.20;3.20;;;;;19.30;97627.60;;;;110517;1254;41179;-66
2022/06/17 07:22:39;;;;;;;7.60;3.00;;;;;19.30;97627.00;;;;110548;1254;41155;-66
2022/06/17 07:25:09;;;;;;;7.40;3.00;;;;;19.30;97620.20;;;;110609;1253;41129;-66
2022/06/17 07:27:38;;;;;;;7.20;3.10;;;;;19.22;97625.00;;;;110212;1253;326691;-68
2022/06/17 07:30:13;;;;;;;7.20;2.80;;;;;19.20;97632.20;;;;110727;1251;41517;-67
2022/06/17 07:32:43;;;;;;;6.50;2.70;;;;;19.20;97638.40;;;;110757;1251;42385;-70
2022/06/17 07:35:13;;;;;;;6.80;2.60;;;;;19.10;97646.20;;;;110817;1251;41179;-65
2022/06/17 07:40:30;;;;;;;9.60;2.80;;;;;18.90;97650.40;;;;110511;1253;41269;-66
2022/06/17 07:43:00;;;;;;;6.50;2.80;;;;;18.90;97656.40;;;;110719;1251;41601;-66
2022/06/17 07:45:31;;;;;;;8.10;3.30;;;;;18.90;97652.00;;;;110710;1251;41263;-66
2022/06/17 07:48:01;;;;;;;7.30;2.80;;;;;18.90;97656.60;;;;110528;1254;41268;-66
2022/06/17 07:50:33;;;;;;;11.10;3.30;;;;;18.86;97656.80;;;;110868;1251;41148;-66
2022/06/17 07:53:02;;;;;;;8.40;3.30;;;;;18.80;97657.60;;;;110689;1251;41904;-65
2022/06/17 07:55:31;;;;;;;8.50;3.20;;;;;18.78;97658.00;;;;110689;1251;41185;-66
2022/06/17 07:58:00;;;;;;;10.10;3.90;;;;;18.80;97657.40;;;;110756;1251;41923;-67
2022/06/17 08:00:35;;;;;;;9.40;3.30;;;;;18.80;97657.40;;;;110562;1254;41655;-66
2022/06/17 08:03:09;;;;;;;10.60;3.40;;;;;18.80;97652.20;;;;110675;1251;41279;-67
2022/06/17 08:05:46;;;;;;;10.40;3.40;;;;;18.80;97656.20;;;;110737;1251;41263;-69
2022/06/17 08:08:21;;;;;;;8.80;3.60;;;;;18.90;97658.40;;;;110463;1254;41981;-67
2022/06/17 08:10:54;;;;;;;8.40;3.50;;;;;18.88;97661.40;;;;110621;1253;42425;-66
2022/06/17 08:13:24;;;;;;;9.40;3.30;;;;;18.90;97661.60;;;;110770;1251;42204;-67
2022/06/17 08:15:56;;;;;;;9.10;3.50;;;;;18.92;97660.00;;;;110673;1253;42078;-66
2022/06/17 08:18:26;;;;;;;10.40;3.80;;;;;19.00;97657.80;;;;110653;1251;41631;-65
2022/06/17 08:20:55;;;;;;;11.60;3.60;;;;;19.02;97656.00;;;;110746;1251;41151;-67
2022/06/17 08:23:25;;;;;;;13.50;4.00;;;;;19.04;97650.40;;;;110759;1251;41173;-66
2022/06/17 08:25:55;;;;;;;8.60;3.50;;;;;19.08;97646.20;;;;110764;1251;41158;-66
2022/06/17 08:28:24;;;;;;;9.20;4.00;;;;;19.10;97644.40;;;;110595;1253;41154;-66
2022/06/17 08:30:55;;;;;;;9.80;4.00;;;;;19.06;97638.40;;;;110564;1252;41147;-66
2022/06/17 08:33:29;;;;;;;10.70;4.20;;;;;19.00;97636.60;;;;110631;1251;41288;-66
2022/06/17 08:36:17;;;;;;;10.70;4.40;;;;;19.00;97627.00;;;;110534;1251;41171;-65
2022/06/17 08:39:07;;;;;;;10.00;4.00;;;;;18.90;97622.40;;;;110528;1253;41620;-66
2022/06/17 08:41:48;;;;;;;12.50;4.40;;;;;18.80;97622.80;;;;110589;1251;41892;-66
2022/06/17 08:44:44;;;;;;;8.60;3.80;;;;;18.78;97616.60;;;;110714;1251;41270;-65
2022/06/17 08:47:33;;;;;;;8.80;4.10;;;;;18.60;97613.00;;;;110694;1251;41951;-65
2022/06/17 08:50:25;;;;;;;9.80;4.60;;;;;18.20;97611.20;;;;110558;1255;41377;-67
2022/06/17 08:53:09;;;;;;;9.70;4.10;;;;;18.00;97610.40;;;;110462;1252;41166;-66
2022/06/17 08:55:51;;;;;;;10.50;4.70;;;;;17.82;97617.00;;;;110577;1253;41711;-67
2022/06/17 08:58:32;;;;;;;9.30;3.40;;;;;17.80;97626.20;;;;110551;1252;41148;-67
2022/06/17 09:01:10;;;;;;;8.40;3.60;;;;;17.92;97620.00;;;;110675;1251;42309;-67
2022/06/17 09:03:49;;;;;;;9.70;4.10;;;;;18.10;97626.40;;;;110534;1253;41445;-66
2022/06/17 09:06:48;;;;;;;9.00;3.90;;;;;18.20;97628.80;;;;110671;1251;42642;-67
2022/06/17 09:09:42;;;;;;;8.60;3.70;;;;;18.34;97635.00;;;;110512;1253;41737;-66
2022/06/17 09:12:32;;;;;;;7.70;3.10;;;;;18.50;97632.80;;;;110586;1251;41145;-66
2022/06/17 09:15:12;;;;;;;10.30;3.50;;;;;18.60;97636.80;;;;110581;1253;41821;-67
2022/06/17 09:18:13;;;;;;;9.40;3.50;;;;;18.78;97642.80;;;;110574;1251;41702;-68
2022/06/17 09:20:44;;;;;;;8.20;3.40;;;;;18.90;97640.40;;;;110756;1251;41617;-67
2022/06/17 09:23:17;;;;;;;9.80;4.40;;;;;19.08;97644.00;;;;110564;1253;41162;-66
2022/06/17 09:25:47;;;;;;;11.70;4.00;;;;;19.20;97656.60;;;;110510;1253;41173;-67
2022/06/17 09:28:33;;;;;;;8.70;4.00;;;;;19.20;97654.00;;;;110721;1251;41138;-68
2022/06/17 09:31:42;;;;;;;14.60;4.50;;;;;19.18;97656.00;;;;110735;1251;41187;-67
2022/06/17 09:34:21;;;;;;;10.70;4.80;;;;;19.00;97661.80;;;;110646;1253;41276;-69
2022/06/17 09:37:16;;;;;;;11.00;4.20;;;;;18.90;97663.00;;;;110625;1254;41266;-65
2022/06/17 09:39:56;;;;;;;9.70;4.60;;;;;18.80;97663.40;;;;110616;1251;41163;-68
2022/06/17 09:42:33;;;;;;;11.10;4.60;;;;;18.60;97661.80;;;;110617;1251;41187;-66
2022/06/17 09:45:12;;;;;;;12.40;4.60;;;;;18.60;97668.20;;;;110576;1251;41393;-66
2022/06/17 09:47:48;;;;;;;8.90;3.90;;;;;18.60;97668.20;;;;110568;1253;41149;-66
2022/06/17 09:50:41;;;;;;;9.90;4.20;;;;;18.66;97666.80;;;;110661;1253;41136;-65
2022/06/17 09:56:37;;;;;;;7.70;3.50;;;;;19.16;97655.60;;;;110818;1251;40746;-66
2022/06/17 09:59:24;;;;;;;10.00;4.90;;;;;19.50;97654.20;;;;110728;1251;41127;-65
2022/06/17 10:01:54;;;;;;;10.40;4.60;;;;;19.80;97642.20;;;;110734;1251;41585;-67
2022/06/17 10:04:25;;;;;;;8.70;3.90;;;;;20.00;97640.60;;;;110523;1253;41159;-67
2022/06/17 10:07:22;;;;;;;9.30;4.30;;;;;20.22;97643.00;;;;110704;1251;41143;-66
2022/06/17 10:09:54;;;;;;;8.90;4.60;;;;;20.30;97642.60;;;;110584;1252;41274;-66
2022/06/17 10:12:48;;;;;;;8.70;4.10;;;;;20.50;97643.00;;;;110817;1251;41173;-67
2022/06/17 10:18:55;;;;;;;9.00;4.00;;;;;20.76;97638.80;;;;110633;1254;41192;-67
2022/06/17 10:22:06;;;;;;;9.20;3.30;;;;;20.80;97633.80;;;;110766;1251;41176;-66
2022/06/17 10:25:09;;;;;;;8.80;3.70;;;;;21.02;97629.20;;;;110561;1253;42446;-70
2022/06/17 10:28:00;;;;;;;6.80;2.80;;;;;21.26;97633.20;;;;110573;1253;41206;-65
2022/06/17 10:30:51;;;;;;;8.80;3.50;;;;;21.50;97632.40;;;;110736;1251;41133;-67
2022/06/17 10:33:20;;;;;;;7.70;3.40;;;;;21.74;97629.20;;;;110740;1251;41138;-66
2022/06/17 10:35:50;;;;;;;7.30;2.90;;;;;21.94;97629.20;;;;110739;1251;42396;-66
2022/06/17 10:38:25;;;;;;;6.60;2.60;;;;;22.20;97629.60;;;;110733;1251;41854;-65
2022/06/17 10:40:55;;;;;;;8.70;2.80;;;;;22.60;97624.60;;;;110432;1253;41975;-66
2022/06/17 10:43:32;;;;;;;7.70;2.80;;;;;23.00;97623.80;;;;110618;1253;41285;-67
2022/06/17 10:46:02;;;;;;;7.60;2.50;;;;;23.30;97621.40;;;;110758;1251;41643;-67
2022/06/17 10:48:42;;;;;;;5.70;2.30;;;;;23.50;97622.00;;;;110586;1253;41532;-67
2022/06/17 10:51:11;;;;;;;4.90;2.00;;;;;23.80;97617.20;;;;110682;1252;41720;-67
2022/06/17 10:53:45;;;;;;;4.70;2.20;;;;;24.20;97615.40;;;;110498;1253;41744;-67
2022/06/17 10:56:20;;;;;;;5.80;2.30;;;;;24.72;97609.60;;;;110629;1253;41148;-67
2022/06/17 10:59:02;;;;;;;5.00;2.20;;;;;25.38;97603.20;;;;110606;1253;41827;-67
2022/06/17 11:01:52;;;;;;;5.30;2.30;;;;;26.02;97604.80;;;;110684;1251;41162;-67
2022/06/17 11:04:27;;;;;;;5.00;2.10;;;;;26.54;97602.40;;;;110522;1253;41298;-67
2022/06/17 11:07:00;;;;;;;5.50;2.00;;;;;27.10;97596.40;;;;110651;1252;41254;-67
2022/06/17 11:09:40;;;;;;;4.20;2.00;;;;;27.64;97598.00;;;;110719;1250;41146;-67
2022/06/17 11:12:24;;;;;;;5.20;1.90;;;;;27.80;97593.60;;;;110760;1251;41127;-67
2022/06/17 11:14:55;;;;;;;6.70;2.30;;;;;28.06;97585.80;;;;110696;1251;41826;-67
2022/06/17 11:17:30;;;;;;;5.80;1.90;;;;;29.04;97583.80;;;;110754;1251;41140;-67
2022/06/17 11:20:24;;;;;;;5.10;1.80;;;;;30.24;97570.60;;;;110693;1251;41644;-67
2022/06/17 11:23:22;;;;;;;4.70;1.80;;;;;31.44;97562.20;;;;110583;1252;41595;-66
2022/06/17 11:26:11;;;;;;;4.50;1.90;;;;;32.40;97560.40;;;;110651;1251;41794;-67
2022/06/17 11:28:46;;;;;;;2.80;1.50;;;;;33.08;97562.80;;;;110713;1250;41651;-66
2022/06/17 11:31:22;;;;;;;2.50;1.40;;;;;33.86;97552.80;;;;110643;1253;41152;-67
2022/06/17 11:33:54;;;;;;;2.40;1.40;;;;;34.48;97550.00;;;;110716;1251;41614;-66
2022/06/17 11:36:24;;;;;;;3.00;1.40;;;;;35.00;97548.60;;;;110673;1251;41257;-68
2022/06/17 11:38:56;;;;;;;3.50;1.50;;;;;35.30;97543.60;;;;110710;1251;42175;-67
2022/06/17 11:41:32;;;;;;;2.30;1.30;;;;;35.80;97538.40;;;;110899;1250;41491;-68
2022/06/17 11:44:11;;;;;;;4.30;1.60;;;;;35.96;97533.20;;;;110835;1251;41730;-68
2022/06/17 11:46:53;;;;;;;2.10;1.30;;;;;36.10;97530.20;;;;110598;1251;41654;-68
2022/06/17 11:49:23;;;;;;;2.00;1.20;;;;;36.20;97529.80;;;;110654;1252;41756;-67
2022/06/17 11:51:52;;;;;;;;;;;;;36.60;97529.40;;;;110701;1251;41258;-67
2022/06/17 11:54:27;;;;;;;3.40;1.30;;;;;36.72;97529.20;;;;110785;1250;41588;-68
2022/06/17 11:56:57;;;;;;;2.50;1.30;;;;;36.52;97531.20;;;;110704;1250;41506;-68
2022/06/17 11:59:30;;;;;;;;;;;;;36.50;97532.00;;;;110570;1251;42213;-68
2022/06/17 12:02:07;;;;;;;3.90;1.60;;;;;36.20;97535.80;;;;110570;1253;41266;-68
2022/06/17 12:04:45;;;;;;;2.30;1.20;;;;;35.54;97533.60;;;;110428;1253;41168;-69
2022/06/17 12:07:35;;;;;;;3.00;1.20;;;;;33.94;97538.20;;;;110728;1253;41561;-68
2022/06/17 12:10:45;;;;;;;2.90;1.30;;;;;33.30;97534.20;;;;110692;1251;41141;-68
2022/06/17 12:13:26;;;;;;;4.20;1.70;;;;;32.60;97537.60;;;;110681;1251;41606;-68
2022/06/17 12:16:02;;;;;;;2.60;1.40;;;;;31.90;97535.20;;;;110688;1251;41181;-66
2022/06/17 12:18:36;;;;;;;2.90;1.50;;;;;31.16;97536.40;;;;110704;1253;41630;-68
2022/06/17 12:21:34;;;;;;;3.10;1.50;;;;;30.82;97534.00;;;;110601;1252;41257;-67
2022/06/17 12:24:11;;;;;;;4.50;1.80;;;;;29.98;97536.80;;;;110391;1253;41188;-68
2022/06/17 12:26:58;;;;;;;2.50;1.50;;;;;29.48;97536.40;;;;110673;1253;41955;-67
2022/06/17 12:29:38;;;;;;;3.40;1.60;;;;;29.28;97537.40;;;;110677;1250;41266;-67
2022/06/17 12:32:45;;;;;;;3.90;1.50;;;;;29.10;97536.00;;;;110481;1253;41954;-67
2022/06/17 12:35:34;;;;;;;4.10;1.60;;;;;29.10;97533.20;;;;110695;1251;41589;-67
2022/06/17 12:38:57;;;;;;;3.10;1.60;;;;;28.80;97524.80;;;;110710;1251;41384;-65
2022/06/17 12:41:33;;;;;;;3.20;1.50;;;;;28.40;97534.20;;;;110088;1259;41141;-67
2022/06/17 12:44:21;;;;;;;2.80;1.50;;;;;28.50;97533.40;;;;110214;1257;41183;-68
2022/06/17 12:47:11;;;;;;;4.20;1.70;;;;;28.58;97538.40;;;;110072;1259;41271;-67
2022/06/17 12:53:14;;;;;;;2.60;1.60;;;;;28.50;97526.20;;;;110267;1256;42032;-68
2022/06/17 12:55:56;;;;;;;3.20;1.60;;;;;28.56;97522.40;;;;110184;1258;41159;-66
2022/06/17 12:58:44;;;;;;;5.70;1.60;;;;;28.30;97515.00;;;;110198;1256;41956;-67
2022/06/17 13:01:21;;;;;;;2.70;1.60;;;;;28.00;97509.20;;;;110098;1258;41602;-67
2022/06/17 13:04:18;;;;;;;3.00;1.60;;;;;27.70;97520.80;;;;110514;1257;41152;-68
2022/06/17 13:06:59;;;;;;;2.90;1.50;;;;;27.88;97517.20;;;;110462;1256;40930;-68
2022/06/17 13:09:40;;;;;;;2.50;1.50;;;;;27.98;97522.80;;;;110327;1257;41655;-69
2022/06/17 13:12:39;;;;;;;2.70;1.50;;;;;28.00;97522.80;;;;110112;1257;41153;-67
2022/06/17 13:15:14;;;;;;;4.90;1.70;;;;;28.00;97516.80;;;;109250;1261;41449;-68